Time;durP1;ratioP1;P1;durP2;ratioP2;P2;SDS_P1;SDS_P2;PMS_P1;PMS_P2;Temp;Humidity;BMP_temperature;BMP_pressure;BME280_temperature;BME280_humidity;BME280_pressure;Samples;Min_cycle;Max_cycle;Signal;HPM_P1;HPM_P2
2021/05/21 00:01:00;;;;;;;;;;;28.30;95.60;;;;;;1720202;81;20476;-88
2021/05/21 00:03:30;;;;;;;;;;;28.30;95.50;;;;;;1734303;81;20185;-88
2021/05/21 00:06:03;;;;;;;;;;;28.30;95.50;;;;;;1726718;81;20195;-88
2021/05/21 00:08:31;;;;;;;;;;;28.30;95.40;;;;;;1688523;83;20150;-87
2021/05/21 00:11:01;;;;;;;;;;;28.30;95.60;;;;;;1680764;83;20191;-88
2021/05/21 00:13:31;;;;;;;;;;;28.30;95.40;;;;;;1718427;81;20152;-88
2021/05/21 00:16:01;;;;;;;;;;;28.40;95.40;;;;;;1731466;81;20186;-88
2021/05/21 00:18:31;;;;;;;;;;;28.40;95.50;;;;;;1721275;80;20126;-89
2021/05/21 00:21:03;;;;;;;;;;;28.40;95.50;;;;;;1726912;80;20188;-88
2021/05/21 00:23:36;;;;;;;;;;;28.40;95.50;;;;;;1710330;82;20213;-88
2021/05/21 00:26:06;;;;;;;;;;;28.50;95.50;;;;;;1730179;81;20144;-87
2021/05/21 00:28:35;;;;;;;;;;;28.50;95.40;;;;;;1742120;81;20345;-87
2021/05/21 00:31:05;;;;;;;;;;;28.50;95.30;;;;;;1724582;81;20228;-82
2021/05/21 00:33:35;;;;;;;;;;;28.60;95.30;;;;;;1729721;81;20196;-83
2021/05/21 00:36:05;;;;;;;;;;;28.70;95.20;;;;;;1731941;81;20282;-83
2021/05/21 00:38:35;;;;;;;;;;;28.70;95.20;;;;;;1738685;81;20206;-83
2021/05/21 00:41:05;;;;;;;;;;;28.80;95.30;;;;;;1725275;80;20311;-83
2021/05/21 00:43:35;;;;;;;;;;;28.90;95.20;;;;;;1719940;81;20185;-83
2021/05/21 00:46:04;;;;;;;;;;;28.90;95.10;;;;;;1718861;80;20205;-83
2021/05/21 00:48:34;;;;;;;;;;;29.00;94.90;;;;;;1756378;81;20208;-83
2021/05/21 00:51:04;;;;;;;;;;;29.10;94.80;;;;;;1739293;81;20467;-82
2021/05/21 00:53:34;;;;;;;;;;;29.10;94.80;;;;;;1747974;81;20228;-83
2021/05/21 00:56:04;;;;;;;;;;;29.20;94.70;;;;;;1732033;81;20259;-84
2021/05/21 00:58:36;;;;;;;;;;;29.30;94.80;;;;;;1717040;81;20211;-84
2021/05/21 01:01:06;;;;;;;;;;;29.40;94.30;;;;;;1740295;80;20130;-85
2021/05/21 01:03:37;;;;;;;;;;;29.40;94.20;;;;;;1721977;81;20135;-85
2021/05/21 01:06:07;;;;;;;;;;;29.50;94.00;;;;;;1687592;83;20921;-84
2021/05/21 01:08:39;;;;;;;;;;;29.60;93.70;;;;;;1690106;83;20230;-83
2021/05/21 01:11:09;;;;;;;;;;;29.60;93.60;;;;;;1714764;82;20143;-83
2021/05/21 01:13:40;;;;;;;;;;;29.70;93.60;;;;;;1734677;81;20203;-82
2021/05/21 01:16:10;;;;;;;;;;;29.80;93.10;;;;;;1731897;81;20234;-83
2021/05/21 01:18:40;;;;;;;;;;;29.80;92.90;;;;;;1734897;81;20254;-84
2021/05/21 01:21:10;;;;;;;;;;;29.90;92.60;;;;;;1743309;81;21228;-85
2021/05/21 01:26:33;;;;;;;;;;;30.10;92.30;;;;;;1638564;87;20247;-85
2021/05/21 01:29:03;;;;;;;;;;;30.20;92.10;;;;;;1619816;87;20233;-84
2021/05/21 01:31:34;;;;;;;;;;;30.30;92.00;;;;;;1647588;85;20518;-84
2021/05/21 01:34:04;;;;;;;;;;;30.40;91.60;;;;;;1651906;86;20341;-84
2021/05/21 01:36:33;;;;;;;;;;;30.50;91.10;;;;;;1633623;86;20850;-83
2021/05/21 01:39:06;;;;;;;;;;;30.60;91.00;;;;;;1602486;88;20303;-84
2021/05/21 01:41:36;;;;;;;;;;;30.60;90.50;;;;;;1573769;89;20219;-84
2021/05/21 01:44:07;;;;;;;;;;;30.70;90.50;;;;;;1628909;87;20192;-84
2021/05/21 01:46:37;;;;;;;;;;;30.80;90.50;;;;;;1631548;87;20283;-84
2021/05/21 01:49:07;;;;;;;;;;;30.80;89.30;;;;;;1652280;85;20226;-84
2021/05/21 01:51:38;;;;;;;;;;;30.90;89.10;;;;;;1626526;87;20312;-84
2021/05/21 01:54:09;;;;;;;;;;;31.00;88.70;;;;;;1640604;85;20266;-79
2021/05/21 01:56:39;;;;;;;;;;;31.10;89.00;;;;;;1631553;86;20368;-77
2021/05/21 01:59:09;;;;;;;;;;;31.20;88.80;;;;;;1629881;85;20349;-78
2021/05/21 02:01:38;;;;;;;;;;;31.40;88.30;;;;;;1638810;86;20261;-77
2021/05/21 02:04:08;;;;;;;;;;;31.50;88.30;;;;;;1685852;82;20242;-78
2021/05/21 02:06:38;;;;;;;;;;;31.60;87.90;;;;;;1729328;81;20141;-78
2021/05/21 02:09:10;;;;;;;;;;;31.70;85.80;;;;;;1737794;80;20265;-78
2021/05/21 02:11:40;;;;;;;;;;;31.70;85.60;;;;;;1696926;84;20184;-79
2021/05/21 02:14:10;;;;;;;;;;;31.80;85.80;;;;;;1716810;82;20304;-79
2021/05/21 02:16:40;;;;;;;;;;;31.80;85.70;;;;;;1691489;82;20224;-79
2021/05/21 02:19:10;;;;;;;;;;;31.90;85.50;;;;;;1699417;82;20175;-78
2021/05/21 02:21:42;;;;;;;;;;;32.00;84.60;;;;;;1667900;84;20260;-79
2021/05/21 02:24:12;;;;;;;;;;;32.10;84.40;;;;;;1674377;83;20221;-78
2021/05/21 02:26:43;;;;;;;;;;;32.20;83.90;;;;;;1697434;83;20203;-78
2021/05/21 02:29:12;;;;;;;;;;;32.30;83.10;;;;;;1697222;82;20480;-78
2021/05/21 02:31:42;;;;;;;;;;;32.30;83.00;;;;;;1730409;81;20492;-78
2021/05/21 02:34:12;;;;;;;;;;;32.30;83.10;;;;;;1732006;81;20213;-80
2021/05/21 02:36:43;;;;;;;;;;;32.40;82.50;;;;;;1723871;81;20194;-80
2021/05/21 02:39:13;;;;;;;;;;;32.50;82.30;;;;;;1748125;81;20297;-80
2021/05/21 02:41:43;;;;;;;;;;;32.60;81.40;;;;;;1738883;81;20447;-82
2021/05/21 02:44:12;;;;;;;;;;;32.60;81.20;;;;;;1748293;81;20199;-81
2021/05/21 02:46:42;;;;;;;;;;;32.70;80.40;;;;;;1730847;82;20199;-80
2021/05/21 02:49:19;;;;;;;;;;;32.80;80.20;;;;;;1747139;81;20247;-80
2021/05/21 02:51:43;;;;;;;;;;;32.80;79.70;;;;;;1742908;81;20149;-80
2021/05/21 02:54:13;;;;;;;;;;;33.00;80.20;;;;;;1731800;82;20169;-81
2021/05/21 02:56:43;;;;;;;;;;;33.00;79.30;;;;;;1751925;81;20216;-81
2021/05/21 02:59:12;;;;;;;;;;;33.00;77.10;;;;;;1743932;80;20533;-81
2021/05/21 03:01:42;;;;;;;;;;;33.10;77.10;;;;;;1737158;81;20218;-80
2021/05/21 03:04:12;;;;;;;;;;;33.10;77.10;;;;;;1743882;81;20191;-81
2021/05/21 03:06:42;;;;;;;;;;;33.20;77.40;;;;;;1747374;81;20234;-82
2021/05/21 03:09:12;;;;;;;;;;;33.30;77.50;;;;;;1751056;81;20228;-79
2021/05/21 03:11:42;;;;;;;;;;;33.30;76.80;;;;;;1733345;81;20207;-81
2021/05/21 03:14:31;;;;;;;;;;;33.30;76.50;;;;;;1738069;81;20222;-77
2021/05/21 03:17:01;;;;;;;;;;;33.40;76.90;;;;;;1707549;82;20222;-80
2021/05/21 03:19:31;;;;;;;;;;;33.50;75.80;;;;;;1709442;82;20321;-78
2021/05/21 03:22:01;;;;;;;;;;;33.60;75.40;;;;;;1713873;82;20236;-79
2021/05/21 03:24:31;;;;;;;;;;;33.70;74.60;;;;;;1731380;81;20412;-77
2021/05/21 03:27:01;;;;;;;;;;;33.70;74.00;;;;;;1706125;82;20141;-78
2021/05/21 03:29:31;;;;;;;;;;;33.80;74.10;;;;;;1716972;82;20226;-78
2021/05/21 03:32:01;;;;;;;;;;;33.80;73.90;;;;;;1703337;82;20356;-77
2021/05/21 03:34:31;;;;;;;;;;;33.80;74.40;;;;;;1697977;83;20515;-78
2021/05/21 03:37:04;;;;;;;;;;;33.90;74.40;;;;;;1650282;85;20240;-78
2021/05/21 03:39:35;;;;;;;;;;;33.90;73.10;;;;;;1655509;85;20243;-78
2021/05/21 03:42:07;;;;;;;;;;;33.90;73.70;;;;;;1709776;82;20217;-79
2021/05/21 03:44:37;;;;;;;;;;;34.00;72.80;;;;;;1716009;83;20441;-79
2021/05/21 03:47:07;;;;;;;;;;;34.00;73.90;;;;;;1711436;82;20245;-79
2021/05/21 03:49:38;;;;;;;;;;;34.10;75.00;;;;;;1706263;82;20249;-77
2021/05/21 03:52:08;;;;;;;;;;;34.20;73.10;;;;;;1661262;85;20520;-79
2021/05/21 03:54:37;;;;;;;;;;;34.40;72.10;;;;;;1705112;82;20514;-79
2021/05/21 03:57:08;;;;;;;;;;;34.40;71.50;;;;;;1705744;82;20228;-78
2021/05/21 03:59:38;;;;;;;;;;;34.40;71.20;;;;;;1675465;83;20178;-78
2021/05/21 04:02:08;;;;;;;;;;;34.50;71.40;;;;;;1648560;86;20296;-78
2021/05/21 04:04:38;;;;;;;;;;;34.40;71.10;;;;;;1683825;83;20192;-78
2021/05/21 04:07:08;;;;;;;;;;;34.40;70.20;;;;;;1668717;84;20148;-78
2021/05/21 04:09:38;;;;;;;;;;;34.40;71.20;;;;;;1685866;84;20232;-79
2021/05/21 04:12:09;;;;;;;;;;;34.50;71.50;;;;;;1688996;83;20210;-79
2021/05/21 04:14:38;;;;;;;;;;;34.60;70.90;;;;;;1690852;84;20268;-78
2021/05/21 04:17:09;;;;;;;;;;;34.60;71.10;;;;;;1680963;83;20195;-78
2021/05/21 04:19:39;;;;;;;;;;;34.70;70.80;;;;;;1682031;84;20252;-78
2021/05/21 04:22:09;;;;;;;;;;;34.80;70.10;;;;;;1676378;83;20231;-79
2021/05/21 04:24:39;;;;;;;;;;;34.80;69.70;;;;;;1685172;83;20262;-78
2021/05/21 04:27:10;;;;;;;;;;;34.90;67.90;;;;;;1694188;83;20224;-77
2021/05/21 04:29:42;;;;;;;;;;;35.00;67.90;;;;;;1674457;83;20259;-78
2021/05/21 04:32:12;;;;;;;;;;;35.00;67.90;;;;;;1686295;84;20245;-79
2021/05/21 04:34:43;;;;;;;;;;;35.00;67.40;;;;;;1685252;84;20193;-78
2021/05/21 04:37:13;;;;;;;;;;;35.10;66.70;;;;;;1691576;84;20227;-80
2021/05/21 04:39:43;;;;;;;;;;;35.10;66.70;;;;;;1686651;83;20274;-79
2021/05/21 04:42:13;;;;;;;;;;;35.00;66.60;;;;;;1679723;83;20242;-79
2021/05/21 04:44:42;;;;;;;;;;;35.00;67.30;;;;;;1674775;85;20214;-79
2021/05/21 04:47:12;;;;;;;;;;;35.00;65.80;;;;;;1679677;84;20278;-76
2021/05/21 04:49:42;;;;;;;;;;;35.00;66.00;;;;;;1708607;82;20142;-79
2021/05/21 04:52:15;;;;;;;;;;;35.00;65.20;;;;;;1707832;82;20703;-78
2021/05/21 04:54:44;;;;;;;;;;;35.00;66.00;;;;;;1707821;82;20230;-79
2021/05/21 04:57:14;;;;;;;;;;;35.10;66.70;;;;;;1706102;82;20279;-78
2021/05/21 04:59:53;;;;;;;;;;;35.20;64.90;;;;;;1708571;82;20223;-79
2021/05/21 05:02:21;;;;;;;;;;;35.20;65.30;;;;;;1700204;83;20212;-79
2021/05/21 05:04:51;;;;;;;;;;;35.30;64.40;;;;;;1686717;83;20259;-79
2021/05/21 05:07:21;;;;;;;;;;;35.30;63.10;;;;;;1702500;83;20566;-78
2021/05/21 05:09:55;;;;;;;;;;;35.40;63.10;;;;;;1684074;83;20213;-79
2021/05/21 05:12:24;;;;;;;;;;;35.50;63.60;;;;;;1699456;82;20165;-79
2021/05/21 05:14:55;;;;;;;;;;;35.60;62.00;;;;;;1702416;82;20829;-78
2021/05/21 05:17:25;;;;;;;;;;;35.60;60.50;;;;;;1704819;82;20208;-78
2021/05/21 05:19:55;;;;;;;;;;;35.70;62.50;;;;;;1697133;82;20135;-79
2021/05/21 05:22:26;;;;;;;;;;;35.70;59.30;;;;;;1682099;83;20214;-78
2021/05/21 05:24:58;;;;;;;;;;;35.70;61.30;;;;;;1688788;82;20223;-79
2021/05/21 05:27:29;;;;;;;;;;;35.70;59.80;;;;;;1674096;84;20247;-80
2021/05/21 05:29:59;;;;;;;;;;;35.70;59.60;;;;;;1710512;82;20256;-81
2021/05/21 05:32:28;;;;;;;;;;;35.60;59.50;;;;;;1692555;84;20278;-81
2021/05/21 05:34:59;;;;;;;;;;;35.60;61.70;;;;;;1687428;84;20270;-80
2021/05/21 05:37:28;;;;;;;;;;;35.70;61.40;;;;;;1694190;83;20474;-82
2021/05/21 05:39:58;;;;;;;;;;;35.70;61.70;;;;;;1704424;82;20225;-80
2021/05/21 05:42:28;;;;;;;;;;;35.60;61.50;;;;;;1706988;82;20280;-80
2021/05/21 05:45:01;;;;;;;;;;;35.40;62.70;;;;;;1708842;82;20493;-78
2021/05/21 05:47:31;;;;;;;;;;;35.20;63.90;;;;;;1707763;82;20280;-80
2021/05/21 05:50:01;;;;;;;;;;;35.00;64.20;;;;;;1703906;82;20620;-80
2021/05/21 05:52:34;;;;;;;;;;;34.90;63.80;;;;;;1698927;82;20188;-80
2021/05/21 05:55:04;;;;;;;;;;;34.90;64.40;;;;;;1708060;82;20220;-80
2021/05/21 05:57:34;;;;;;;;;;;35.00;63.40;;;;;;1707231;82;20833;-81
2021/05/21 06:00:05;;;;;;;;;;;35.10;66.00;;;;;;1699082;82;20457;-81
2021/05/21 06:02:35;;;;;;;;;;;35.30;64.20;;;;;;1714139;82;20216;-80
2021/05/21 06:05:06;;;;;;;;;;;35.40;63.50;;;;;;1712241;82;20263;-83
2021/05/21 06:07:38;;;;;;;;;;;35.50;63.50;;;;;;1697801;82;20251;-80
2021/05/21 06:10:10;;;;;;;;;;;35.50;61.80;;;;;;1709474;82;20212;-82
2021/05/21 06:12:41;;;;;;;;;;;35.60;62.30;;;;;;1705426;82;20459;-81
2021/05/21 06:15:11;;;;;;;;;;;35.70;61.30;;;;;;1696370;83;20213;-82
2021/05/21 06:17:41;;;;;;;;;;;35.70;61.10;;;;;;1703124;83;20211;-80
2021/05/21 06:20:12;;;;;;;;;;;35.60;61.50;;;;;;1686986;83;20261;-80
2021/05/21 06:22:43;;;;;;;;;;;35.60;60.30;;;;;;1699518;82;20191;-81
2021/05/21 06:25:15;;;;;;;;;;;35.80;58.50;;;;;;1680980;83;20221;-81
2021/05/21 06:27:46;;;;;;;;;;;35.80;57.10;;;;;;1682848;84;20248;-81
2021/05/21 06:30:17;;;;;;;;;;;35.80;55.90;;;;;;1689452;83;20618;-82
2021/05/21 06:32:48;;;;;;;;;;;35.80;56.20;;;;;;1720786;82;20186;-81
2021/05/21 06:35:18;;;;;;;;;;;35.80;56.80;;;;;;1717082;82;20251;-82
2021/05/21 06:37:48;;;;;;;;;;;35.70;57.00;;;;;;1705176;82;20252;-81
2021/05/21 06:40:21;;;;;;;;;;;35.80;57.00;;;;;;1704333;82;20226;-81
2021/05/21 06:42:51;;;;;;;;;;;35.80;57.30;;;;;;1695615;82;20225;-77
2021/05/21 06:45:21;;;;;;;;;;;35.80;57.20;;;;;;1681252;84;20316;-75
2021/05/21 06:47:50;;;;;;;;;;;35.80;57.20;;;;;;1678720;83;20296;-76
2021/05/21 06:50:20;;;;;;;;;;;35.70;57.60;;;;;;1686669;82;20224;-77
2021/05/21 06:52:50;;;;;;;;;;;35.70;56.80;;;;;;1703978;82;20231;-75
2021/05/21 06:55:20;;;;;;;;;;;35.70;57.30;;;;;;1707977;82;20227;-77
2021/05/21 06:57:50;;;;;;;;;;;35.70;56.50;;;;;;1703389;82;20216;-76
2021/05/21 07:00:20;;;;;;;;;;;35.80;56.50;;;;;;1707643;82;20271;-77
2021/05/21 07:02:50;;;;;;;;;;;35.80;55.50;;;;;;1710110;82;20241;-78
2021/05/21 07:05:20;;;;;;;;;;;35.80;55.60;;;;;;1676835;83;20253;-78
2021/05/21 07:07:50;;;;;;;;;;;35.70;55.10;;;;;;1684993;84;20618;-76
2021/05/21 07:10:20;;;;;;;;;;;35.80;54.40;;;;;;1668517;83;20540;-76
2021/05/21 07:12:50;;;;;;;;;;;35.70;54.70;;;;;;1678602;84;20231;-77
2021/05/21 07:15:21;;;;;;;;;;;35.80;55.20;;;;;;1671960;83;20306;-77
2021/05/21 07:17:50;;;;;;;;;;;35.80;54.60;;;;;;1682974;84;20303;-77
2021/05/21 07:20:21;;;;;;;;;;;35.90;55.60;;;;;;1686536;84;20224;-76
2021/05/21 07:22:52;;;;;;;;;;;36.00;55.30;;;;;;1686850;84;20546;-77
2021/05/21 07:25:22;;;;;;;;;;;36.10;54.70;;;;;;1679833;84;20262;-76
2021/05/21 07:27:53;;;;;;;;;;;36.10;53.80;;;;;;1680970;84;20257;-78
2021/05/21 07:30:26;;;;;;;;;;;36.30;53.30;;;;;;1686921;83;20234;-76
2021/05/21 07:32:57;;;;;;;;;;;36.30;54.50;;;;;;1681005;84;20154;-77
2021/05/21 07:35:31;;;;;;;;;;;36.30;54.40;;;;;;1666278;84;20214;-77
2021/05/21 07:38:01;;;;;;;;;;;36.20;52.10;;;;;;1636774;86;20468;-77
2021/05/21 07:40:31;;;;;;;;;;;36.20;52.90;;;;;;1689901;83;20143;-77
2021/05/21 07:43:01;;;;;;;;;;;36.30;53.20;;;;;;1691895;84;20178;-78
2021/05/21 07:45:31;;;;;;;;;;;36.30;54.90;;;;;;1686945;82;20258;-77
2021/05/21 07:48:01;;;;;;;;;;;36.40;52.80;;;;;;1685127;83;20200;-78
2021/05/21 07:50:31;;;;;;;;;;;36.30;51.70;;;;;;1689138;84;20572;-78
2021/05/21 07:53:01;;;;;;;;;;;36.30;53.20;;;;;;1677495;84;20204;-77
2021/05/21 07:55:31;;;;;;;;;;;36.30;54.50;;;;;;1685429;84;20288;-76
2021/05/21 07:58:02;;;;;;;;;;;36.20;54.70;;;;;;1691251;84;20240;-77
2021/05/21 08:00:32;;;;;;;;;;;36.30;54.70;;;;;;1686069;84;20236;-78
2021/05/21 08:03:03;;;;;;;;;;;36.30;54.10;;;;;;1686810;84;20382;-79
2021/05/21 08:05:33;;;;;;;;;;;36.30;53.20;;;;;;1691042;84;20320;-76
2021/05/21 08:08:05;;;;;;;;;;;36.40;52.20;;;;;;1672992;84;20452;-76
2021/05/21 08:10:35;;;;;;;;;;;36.40;53.70;;;;;;1678682;84;20184;-77
2021/05/21 08:13:05;;;;;;;;;;;36.30;53.00;;;;;;1676817;84;20229;-76
2021/05/21 08:15:35;;;;;;;;;;;36.30;52.60;;;;;;1674293;85;20295;-77
2021/05/21 08:18:05;;;;;;;;;;;36.30;55.20;;;;;;1685856;84;20414;-75
2021/05/21 08:20:35;;;;;;;;;;;36.30;56.80;;;;;;1674048;84;20708;-76
2021/05/21 08:23:05;;;;;;;;;;;36.30;57.10;;;;;;1678459;84;20132;-76
2021/05/21 08:25:39;;;;;;;;;;;36.20;57.20;;;;;;1674772;84;20342;-77
2021/05/21 08:28:09;;;;;;;;;;;36.20;57.30;;;;;;1675668;84;20193;-77
2021/05/21 08:30:39;;;;;;;;;;;36.20;57.20;;;;;;1673189;84;20467;-77
2021/05/21 08:33:10;;;;;;;;;;;36.10;57.40;;;;;;1676870;84;20268;-77
2021/05/21 08:35:40;;;;;;;;;;;36.10;57.60;;;;;;1675833;84;20287;-77
2021/05/21 08:38:10;;;;;;;;;;;36.10;58.70;;;;;;1677274;84;20256;-78
2021/05/21 08:40:40;;;;;;;;;;;36.10;58.50;;;;;;1672865;83;20207;-77
2021/05/21 08:43:12;;;;;;;;;;;36.10;58.50;;;;;;1684718;84;20138;-78
2021/05/21 08:45:43;;;;;;;;;;;36.10;58.00;;;;;;1679444;83;20270;-76
2021/05/21 08:48:14;;;;;;;;;;;36.10;58.50;;;;;;1683279;83;20195;-76
2021/05/21 08:50:44;;;;;;;;;;;36.10;58.00;;;;;;1675361;84;20233;-78
2021/05/21 08:53:13;;;;;;;;;;;36.10;58.20;;;;;;1670625;84;20293;-78
2021/05/21 08:55:43;;;;;;;;;;;36.10;57.30;;;;;;1674745;83;20765;-78
2021/05/21 08:58:13;;;;;;;;;;;36.00;57.50;;;;;;1671342;84;20315;-78
2021/05/21 09:00:44;;;;;;;;;;;36.00;56.40;;;;;;1675428;84;20191;-78
2021/05/21 09:03:14;;;;;;;;;;;36.00;56.10;;;;;;1680771;83;20576;-78
2021/05/21 09:05:45;;;;;;;;;;;36.00;56.20;;;;;;1680494;84;20300;-78
2021/05/21 09:08:17;;;;;;;;;;;35.90;55.50;;;;;;1672301;84;20188;-77
2021/05/21 09:10:47;;;;;;;;;;;35.90;55.70;;;;;;1676656;84;20264;-77
2021/05/21 09:13:17;;;;;;;;;;;35.80;56.50;;;;;;1677729;84;20223;-77
2021/05/21 09:15:47;;;;;;;;;;;35.80;55.70;;;;;;1691624;83;20272;-78
2021/05/21 09:18:17;;;;;;;;;;;35.80;55.60;;;;;;1681013;83;20173;-77
2021/05/21 09:20:51;;;;;;;;;;;35.80;55.80;;;;;;1682894;83;20149;-77
2021/05/21 09:23:20;;;;;;;;;;;35.70;55.90;;;;;;1681227;83;20192;-79
2021/05/21 09:25:51;;;;;;;;;;;35.80;56.20;;;;;;1678979;84;20132;-77
2021/05/21 09:28:22;;;;;;;;;;;35.70;56.10;;;;;;1682674;84;20184;-77
2021/05/21 09:30:57;;;;;;;;;;;35.70;55.60;;;;;;1679238;83;20231;-78
2021/05/21 09:33:28;;;;;;;;;;;35.70;55.80;;;;;;1693973;84;20227;-77
2021/05/21 09:35:58;;;;;;;;;;;35.70;56.20;;;;;;1676502;83;20493;-76
2021/05/21 09:38:27;;;;;;;;;;;35.70;55.90;;;;;;1676687;83;20246;-76
2021/05/21 09:40:59;;;;;;;;;;;35.70;56.00;;;;;;1684987;84;20213;-77
2021/05/21 09:43:29;;;;;;;;;;;35.60;56.20;;;;;;1664856;84;20195;-78
2021/05/21 09:46:00;;;;;;;;;;;35.60;56.90;;;;;;1671137;84;20251;-79
2021/05/21 09:48:31;;;;;;;;;;;35.60;56.40;;;;;;1674148;83;20234;-79
2021/05/21 09:51:05;;;;;;;;;;;35.60;57.00;;;;;;1652130;86;20229;-79
2021/05/21 09:53:35;;;;;;;;;;;35.50;56.70;;;;;;1642649;86;20606;-80
2021/05/21 09:56:06;;;;;;;;;;;35.50;56.70;;;;;;1627191;88;20236;-83
2021/05/21 09:58:42;;;;;;;;;;;35.50;56.90;;;;;;1635708;86;20261;-82
2021/05/21 10:01:13;;;;;;;;;;;35.50;56.40;;;;;;1690544;84;20245;-81
2021/05/21 10:03:44;;;;;;;;;;;35.40;56.60;;;;;;1693160;83;20464;-82
2021/05/21 10:06:15;;;;;;;;;;;35.40;57.00;;;;;;1679130;83;20218;-81
2021/05/21 10:08:48;;;;;;;;;;;35.40;56.70;;;;;;1689770;82;20210;-79
2021/05/21 10:11:18;;;;;;;;;;;35.40;56.90;;;;;;1697206;83;20270;-81
2021/05/21 10:13:48;;;;;;;;;;;35.40;57.20;;;;;;1688782;83;20245;-79
2021/05/21 10:16:19;;;;;;;;;;;35.40;57.70;;;;;;1695452;84;20577;-81
2021/05/21 10:18:49;;;;;;;;;;;35.30;58.10;;;;;;1681151;84;20220;-79
2021/05/21 10:21:20;;;;;;;;;;;35.40;59.80;;;;;;1673374;84;20167;-82
2021/05/21 10:23:52;;;;;;;;;;;35.30;61.00;;;;;;1651052;85;20150;-81
2021/05/21 10:26:26;;;;;;;;;;;35.10;62.70;;;;;;1640215;85;20155;-81
2021/05/21 10:28:56;;;;;;;;;;;35.00;64.20;;;;;;1630065;86;20429;-80
2021/05/21 10:31:27;;;;;;;;;;;34.90;64.40;;;;;;1645963;85;20530;-80
2021/05/21 10:33:58;;;;;;;;;;;34.70;64.40;;;;;;1653282;86;20189;-83
2021/05/21 10:36:29;;;;;;;;;;;34.70;65.00;;;;;;1643124;85;20190;-82
2021/05/21 10:39:00;;;;;;;;;;;34.60;65.10;;;;;;1665240;84;20229;-81
2021/05/21 10:41:31;;;;;;;;;;;34.50;65.30;;;;;;1660066;85;20158;-81
2021/05/21 10:44:01;;;;;;;;;;;34.50;66.30;;;;;;1654528;85;20145;-81
2021/05/21 10:46:32;;;;;;;;;;;34.40;66.50;;;;;;1677258;85;20202;-81
2021/05/21 10:49:03;;;;;;;;;;;34.30;67.00;;;;;;1670791;85;20209;-81
2021/05/21 10:51:34;;;;;;;;;;;34.30;67.60;;;;;;1665297;85;20179;-81
2021/05/21 10:54:05;;;;;;;;;;;34.20;68.60;;;;;;1648057;86;20208;-81
2021/05/21 10:56:36;;;;;;;;;;;34.00;69.00;;;;;;1663453;85;20193;-82
2021/05/21 10:59:07;;;;;;;;;;;34.00;69.50;;;;;;1686373;84;20199;-80
2021/05/21 11:01:37;;;;;;;;;;;33.90;70.00;;;;;;1674891;84;20254;-81
2021/05/21 11:04:09;;;;;;;;;;;33.90;70.50;;;;;;1686424;83;20220;-81
2021/05/21 11:06:40;;;;;;;;;;;33.70;71.30;;;;;;1694975;84;20197;-81
2021/05/21 11:09:12;;;;;;;;;;;33.70;71.30;;;;;;1700337;84;20144;-82
2021/05/21 11:11:43;;;;;;;;;;;33.70;71.80;;;;;;1688122;84;20204;-80
2021/05/21 11:14:14;;;;;;;;;;;33.60;71.40;;;;;;1679819;84;20177;-82
2021/05/21 11:16:45;;;;;;;;;;;33.60;72.30;;;;;;1705186;84;20177;-81
2021/05/21 11:19:16;;;;;;;;;;;33.50;72.30;;;;;;1698560;84;20622;-82
2021/05/21 11:21:46;;;;;;;;;;;33.50;72.00;;;;;;1694918;84;20186;-82
2021/05/21 11:24:19;;;;;;;;;;;33.50;72.00;;;;;;1700489;83;20228;-82
2021/05/21 11:26:49;;;;;;;;;;;33.50;71.40;;;;;;1668890;85;20211;-81
2021/05/21 11:29:19;;;;;;;;;;;33.50;71.60;;;;;;1668914;84;20163;-82
2021/05/21 11:31:50;;;;;;;;;;;33.40;71.80;;;;;;1684360;85;20242;-82
2021/05/21 11:34:21;;;;;;;;;;;33.30;72.30;;;;;;1666313;84;20274;-82
2021/05/21 11:36:52;;;;;;;;;;;33.30;72.50;;;;;;1658248;85;20262;-82
2021/05/21 11:39:24;;;;;;;;;;;33.30;72.20;;;;;;1656583;85;20135;-83
2021/05/21 11:41:55;;;;;;;;;;;33.30;73.40;;;;;;1676962;84;20227;-83
2021/05/21 11:44:27;;;;;;;;;;;33.20;71.30;;;;;;1676529;84;20218;-83
2021/05/21 11:46:58;;;;;;;;;;;33.10;71.30;;;;;;1693054;84;20199;-82
2021/05/21 11:49:28;;;;;;;;;;;33.10;71.30;;;;;;1689184;84;20239;-81
2021/05/21 11:51:59;;;;;;;;;;;33.10;71.50;;;;;;1679878;84;20191;-82
2021/05/21 11:54:29;;;;;;;;;;;33.10;71.00;;;;;;1677932;84;20204;-82
2021/05/21 11:57:00;;;;;;;;;;;33.00;71.90;;;;;;1692173;84;20472;-82
2021/05/21 11:59:30;;;;;;;;;;;33.00;71.20;;;;;;1683989;84;20242;-82
2021/05/21 12:02:05;;;;;;;;;;;32.90;71.20;;;;;;1682816;84;20164;-82
2021/05/21 12:04:33;;;;;;;;;;;32.90;69.80;;;;;;1665921;84;20203;-82
2021/05/21 12:07:03;;;;;;;;;;;32.90;69.80;;;;;;1657576;85;20162;-82
2021/05/21 12:09:34;;;;;;;;;;;32.80;70.00;;;;;;1673888;84;20131;-80
2021/05/21 12:12:23;;;;;;;;;;;32.80;69.30;;;;;;1671151;84;20168;-83
2021/05/21 12:14:52;;;;;;;;;;;32.70;68.80;;;;;;1665698;84;20233;-82
2021/05/21 12:17:22;;;;;;;;;;;32.70;68.90;;;;;;1685562;84;20244;-82
2021/05/21 12:19:53;;;;;;;;;;;32.70;68.80;;;;;;1687279;84;20471;-80
2021/05/21 12:22:24;;;;;;;;;;;32.70;68.80;;;;;;1683103;83;20426;-81
2021/05/21 12:25:08;;;;;;;;;;;32.70;68.60;;;;;;1688737;84;20146;-82
2021/05/21 12:27:38;;;;;;;;;;;32.70;68.10;;;;;;1677050;84;20227;-82
2021/05/21 12:30:08;;;;;;;;;;;32.70;68.10;;;;;;1678368;84;20191;-84
2021/05/21 12:32:38;;;;;;;;;;;32.70;68.30;;;;;;1674981;84;20219;-83
2021/05/21 12:35:19;;;;;;;;;;;32.70;67.70;;;;;;1689985;84;20189;-83
2021/05/21 12:37:50;;;;;;;;;;;32.60;68.10;;;;;;1699619;83;20584;-83
2021/05/21 12:40:23;;;;;;;;;;;32.60;68.40;;;;;;1681987;84;20786;-83
2021/05/21 12:42:56;;;;;;;;;;;32.50;68.80;;;;;;1681555;84;20248;-82
2021/05/21 12:45:27;;;;;;;;;;;32.50;69.30;;;;;;1703816;84;20177;-82
2021/05/21 12:47:59;;;;;;;;;;;32.50;69.40;;;;;;1684575;84;20287;-82
2021/05/21 12:50:33;;;;;;;;;;;32.40;69.30;;;;;;1648075;86;20286;-83
2021/05/21 12:53:07;;;;;;;;;;;32.40;69.70;;;;;;1656716;85;20252;-83
2021/05/21 12:55:39;;;;;;;;;;;32.40;69.60;;;;;;1690519;84;20268;-83
2021/05/21 12:58:14;;;;;;;;;;;32.30;69.60;;;;;;1674475;85;20206;-84
2021/05/21 13:00:45;;;;;;;;;;;32.30;69.90;;;;;;1681395;84;20268;-83
2021/05/21 13:03:15;;;;;;;;;;;32.20;69.90;;;;;;1697212;83;20243;-83
2021/05/21 13:05:45;;;;;;;;;;;32.20;69.70;;;;;;1690924;84;20254;-82
2021/05/21 13:08:15;;;;;;;;;;;32.20;70.20;;;;;;1697578;83;20283;-83
2021/05/21 13:10:45;;;;;;;;;;;32.20;70.30;;;;;;1679845;85;20183;-83
2021/05/21 13:13:15;;;;;;;;;;;32.20;70.20;;;;;;1648972;87;20190;-85
2021/05/21 13:15:47;;;;;;;;;;;32.20;70.60;;;;;;1695085;83;20243;-85
2021/05/21 13:18:18;;;;;;;;;;;32.20;70.80;;;;;;1685262;84;20251;-84
2021/05/21 13:20:48;;;;;;;;;;;32.10;70.50;;;;;;1679246;84;20186;-84
2021/05/21 13:23:20;;;;;;;;;;;32.10;70.70;;;;;;1680596;84;20194;-83
2021/05/21 13:25:50;;;;;;;;;;;32.10;70.80;;;;;;1676887;84;20162;-83
2021/05/21 13:28:20;;;;;;;;;;;32.10;71.00;;;;;;1700129;83;20265;-83
2021/05/21 13:31:00;;;;;;;;;;;;;;;;;;;;;
2021/05/21 13:33:29;;;;;;;;;;;32.00;71.60;;;;;;1698920;83;20158;-83
2021/05/21 13:36:09;;;;;;;;;;;32.00;71.90;;;;;;1696629;84;20169;-82
2021/05/21 13:38:39;;;;;;;;;;;32.00;72.20;;;;;;1700915;83;20219;-84
2021/05/21 13:41:09;;;;;;;;;;;32.00;72.50;;;;;;1698078;83;20130;-84
2021/05/21 13:43:39;;;;;;;;;;;32.00;72.60;;;;;;1676422;83;20147;-86
2021/05/21 13:46:09;;;;;;;;;;;32.00;72.70;;;;;;1668417;84;20283;-86
2021/05/21 13:48:39;;;;;;;;;;;32.00;73.10;;;;;;1651510;85;20434;-87
2021/05/21 13:51:09;;;;;;;;;;;31.90;73.10;;;;;;1669104;84;20209;-88
2021/05/21 13:53:39;;;;;;;;;;;31.90;73.10;;;;;;1654158;84;20221;-87
2021/05/21 13:56:09;;;;;;;;;;;31.90;73.30;;;;;;1641113;86;20150;-87
2021/05/21 13:58:39;;;;;;;;;;;31.80;73.20;;;;;;1661643;85;20438;-87
2021/05/21 14:01:10;;;;;;;;;;;31.80;73.30;;;;;;1693727;83;20618;-86
2021/05/21 14:03:43;;;;;;;;;;;31.80;73.40;;;;;;1633363;86;20149;-86
2021/05/21 14:06:15;;;;;;;;;;;31.80;73.40;;;;;;1686121;84;20168;-87
2021/05/21 14:08:49;;;;;;;;;;;31.80;73.70;;;;;;1681044;84;20297;-88
2021/05/21 14:11:20;;;;;;;;;;;31.90;73.80;;;;;;1687519;83;20449;-87
2021/05/21 14:13:51;;;;;;;;;;;31.90;73.70;;;;;;1688965;83;20280;-87
2021/05/21 14:16:21;;;;;;;;;;;31.80;73.50;;;;;;1685403;84;20148;-88
2021/05/21 14:18:52;;;;;;;;;;;31.80;73.70;;;;;;1686603;83;20139;-87
2021/05/21 14:21:22;;;;;;;;;;;31.80;73.80;;;;;;1682104;84;20147;-88
2021/05/21 14:23:53;;;;;;;;;;;31.80;74.00;;;;;;1682867;83;20241;-87
2021/05/21 14:26:23;;;;;;;;;;;31.80;74.30;;;;;;1675203;84;20195;-87
2021/05/21 14:28:53;;;;;;;;;;;31.70;74.60;;;;;;1682241;84;20409;-85
2021/05/21 14:31:23;;;;;;;;;;;31.70;74.80;;;;;;1693306;84;20184;-88
2021/05/21 14:33:58;;;;;;;;;;;31.70;75.10;;;;;;1640185;86;20210;-88
2021/05/21 14:36:25;;;;;;;;;;;31.60;75.20;;;;;;1654362;86;20206;-87
2021/05/21 14:38:56;;;;;;;;;;;31.60;75.40;;;;;;1629165;86;20135;-87
2021/05/21 14:41:26;;;;;;;;;;;31.50;75.40;;;;;;1692676;83;20250;-88